Time;durP1;ratioP1;P1;durP2;ratioP2;P2;SDS_P1;SDS_P2;PMS_P1;PMS_P2;Temp;Humidity;BMP_temperature;BMP_pressure;BME280_temperature;BME280_humidity;BME280_pressure;Samples;Min_cycle;Max_cycle;Signal;HPM_P1;HPM_P2
2023/03/10 00:01:28;;;;;;;8.43;1.70;;;;;;;7.62;100.00;96182.13;15290033;19;20014;-50
2023/03/10 00:06:53;;;;;;;8.05;1.60;;;;;;;7.64;100.00;96162.13;15292369;19;20014;-51
2023/03/10 00:12:18;;;;;;;6.15;1.60;;;;;;;7.69;100.00;96150.81;14778897;19;10000546;-51
2023/03/10 00:17:48;;;;;;;5.80;1.58;;;;;;;7.75;100.00;96131.25;15292153;19;20017;-48
2023/03/10 00:23:14;;;;;;;5.77;1.63;;;;;;;7.72;100.00;96124.44;15283897;19;20475;-49
2023/03/10 00:28:38;;;;;;;5.15;1.58;;;;;;;7.71;100.00;96112.06;15292300;19;20011;-52
2023/03/10 00:34:12;;;;;;;5.88;1.50;;;;;;;7.69;100.00;96099.88;15288008;19;20030;-50
2023/03/10 00:39:37;;;;;;;5.35;1.40;;;;;;;7.65;100.00;96102.16;15291402;19;20018;-48
2023/03/10 00:45:02;;;;;;;5.47;1.50;;;;;;;7.60;100.00;96087.69;15290038;19;20020;-47
2023/03/10 00:50:29;;;;;;;5.30;1.55;;;;;;;7.58;100.00;96084.38;15290580;19;20015;-49
2023/03/10 00:56:06;;;;;;;4.60;1.30;;;;;;;7.60;100.00;96080.47;15288106;19;20020;-49
2023/03/10 01:01:34;;;;;;;4.95;1.35;;;;;;;7.66;100.00;96068.13;15285973;19;20018;-47
2023/03/10 01:07:02;;;;;;;4.82;1.60;;;;;;;7.67;100.00;96057.22;15288362;19;20019;-47
2023/03/10 01:12:27;;;;;;;5.53;1.55;;;;;;;7.64;100.00;96038.06;15284246;19;20605;-50
2023/03/10 01:17:51;;;;;;;7.03;1.52;;;;;;;7.64;100.00;96027.34;15286816;19;20474;-47
2023/03/10 01:23:20;;;;;;;7.70;1.50;;;;;;;7.59;100.00;96025.22;15283416;19;20018;-52
2023/03/10 01:28:45;;;;;;;5.45;1.35;;;;;;;7.59;100.00;96005.66;15284981;19;20499;-49
2023/03/10 01:34:16;;;;;;;4.40;1.42;;;;;;;7.58;100.00;95987.94;15283778;19;20016;-47
2023/03/10 01:39:43;;;;;;;4.07;1.33;;;;;;;7.66;100.00;95988.59;15283992;19;20086;-52
2023/03/10 01:45:14;;;;;;;4.07;1.30;;;;;;;7.81;100.00;95971.50;15286918;19;20078;-45
2023/03/10 01:50:40;;;;;;;3.67;1.40;;;;;;;7.90;100.00;95954.19;15282289;19;20714;-47
2023/03/10 01:56:10;;;;;;;3.45;1.23;;;;;;;8.04;100.00;95935.44;15279658;19;20093;-48
2023/03/10 02:01:36;;;;;;;4.60;1.40;;;;;;;8.10;100.00;95924.69;15285513;19;20602;-47
2023/03/10 02:07:04;;;;;;;5.03;1.40;;;;;;;8.17;100.00;95916.66;15240030;19;20090;-49
2023/03/10 02:12:31;;;;;;;4.53;1.35;;;;;;;8.20;100.00;95894.75;15280796;19;20023;-49
2023/03/10 02:18:00;;;;;;;3.97;1.20;;;;;;;8.25;100.00;95892.28;15284050;19;20471;-48
2023/03/10 02:23:33;;;;;;;4.30;1.20;;;;;;;8.22;100.00;95881.16;15281172;19;20011;-47
2023/03/10 02:29:24;;;;;;;3.53;1.17;;;;;;;8.28;100.00;95873.09;15278871;19;20022;-47
2023/03/10 02:34:49;;;;;;;3.53;1.20;;;;;;;8.25;100.00;95868.16;15283909;19;20015;-47
2023/03/10 02:40:33;;;;;;;3.40;1.10;;;;;;;8.21;100.00;95858.88;15282819;19;20025;-47
2023/03/10 02:46:06;;;;;;;3.88;1.13;;;;;;;8.20;100.00;95846.50;15284417;19;20863;-48
2023/03/10 02:51:34;;;;;;;2.92;1.10;;;;;;;8.18;100.00;95838.66;15282122;19;20021;-49
2023/03/10 02:57:02;;;;;;;3.03;1.10;;;;;;;8.16;100.00;95827.31;15281701;19;20477;-47
2023/03/10 03:02:31;;;;;;;3.42;1.13;;;;;;;8.22;100.00;95804.19;15277788;19;20018;-48
2023/03/10 03:07:56;;;;;;;1.98;0.90;;;;;;;8.17;100.00;95777.22;15284776;19;20371;-49
2023/03/10 03:13:14;;;;;;;3.83;1.20;;;;;;;8.20;100.00;95781.31;15301598;19;20022;-50
2023/03/10 03:18:43;;;;;;;2.83;1.10;;;;;;;8.13;100.00;95773.28;15303140;19;20025;-52
2023/03/10 03:24:08;;;;;;;2.90;1.10;;;;;;;8.06;100.00;95777.84;15305652;19;20013;-51
2023/03/10 03:29:33;;;;;;;3.22;1.10;;;;;;;8.06;100.00;95783.19;15298155;19;20435;-52
2023/03/10 03:35:01;;;;;;;3.70;1.13;;;;;;;8.06;100.00;95783.19;15296883;19;20011;-51
2023/03/10 03:40:27;;;;;;;3.03;0.85;;;;;;;8.02;100.00;95770.25;15295646;19;20014;-47
2023/03/10 03:45:52;;;;;;;2.63;1.00;;;;;;;8.03;100.00;95768.38;15292849;19;20022;-48
2023/03/10 03:51:19;;;;;;;3.08;1.20;;;;;;;7.98;100.00;95781.59;15293954;19;20482;-47
2023/03/10 03:56:44;;;;;;;2.08;1.02;;;;;;;7.92;100.00;95769.00;15293102;19;20011;-51
2023/03/10 04:02:09;;;;;;;1.35;0.70;;;;;;;7.98;100.00;95779.72;15291464;19;20028;-47
2023/03/10 04:07:37;;;;;;;2.65;0.80;;;;;;;7.98;100.00;95770.88;15288244;19;20483;-51
2023/03/10 04:13:02;;;;;;;1.90;0.80;;;;;;;7.99;100.00;95761.78;15288904;19;20348;-50
2023/03/10 04:18:27;;;;;;;1.90;0.80;;;;;;;7.99;100.00;95751.88;15292981;19;20014;-51
2023/03/10 04:23:57;;;;;;;2.25;0.75;;;;;;;8.04;100.00;95743.19;15287323;19;20010;-48
2023/03/10 04:29:29;;;;;;;1.50;0.77;;;;;;;8.10;100.00;95741.53;15290559;19;20022;-47
2023/03/10 04:35:01;;;;;;;1.85;0.70;;;;;;;8.19;100.00;95729.53;15291833;19;20003;-47
2023/03/10 04:40:29;;;;;;;1.75;0.63;;;;;;;8.23;100.00;95746.84;15283253;19;20014;-48
2023/03/10 04:46:00;;;;;;;1.83;0.70;;;;;;;8.32;100.00;95732.16;15281953;19;20090;-48
2023/03/10 04:51:25;;;;;;;1.70;0.67;;;;;;;8.38;100.00;95745.75;15282754;19;20010;-48
2023/03/10 04:56:52;;;;;;;1.65;0.50;;;;;;;8.37;100.00;95744.94;15290078;19;20010;-49
2023/03/10 05:02:17;;;;;;;1.08;0.40;;;;;;;8.41;100.00;95750.72;15286770;19;20018;-48
2023/03/10 05:07:42;;;;;;;1.23;0.50;;;;;;;8.47;100.00;95750.69;15289496;19;20028;-48
2023/03/10 05:13:11;;;;;;;0.43;0.32;;;;;;;8.56;100.00;95748.59;15284361;19;20734;-48
2023/03/10 05:18:35;;;;;;;1.85;0.30;;;;;;;8.70;100.00;95745.81;15289220;19;20016;-48
2023/03/10 05:24:04;;;;;;;0.57;0.20;;;;;;;8.74;100.00;95739.00;15281651;19;20067;-48
2023/03/10 05:29:31;;;;;;;0.50;0.30;;;;;;;8.77;100.00;95741.22;15282808;19;20090;-48
2023/03/10 05:35:12;;;;;;;0.50;0.20;;;;;;;8.80;100.00;95743.50;15280330;19;20085;-48
2023/03/10 05:40:37;;;;;;;;;;;;;;;8.84;100.00;95733.13;15278558;19;20022;-47
2023/03/10 05:46:08;;;;;;;0.20;0.20;;;;;;;8.96;100.00;95735.97;15286865;19;20348;-47
2023/03/10 05:51:37;;;;;;;0.90;0.28;;;;;;;8.96;100.00;95726.03;15285490;19;20022;-47
2023/03/10 05:57:02;;;;;;;0.20;0.20;;;;;;;9.00;100.00;95731.78;15283521;19;20017;-50
2023/03/10 06:02:33;;;;;;;1.00;0.20;;;;;;;8.94;100.00;95725.44;15283520;19;20026;-48
2023/03/10 06:07:59;;;;;;;0.40;0.20;;;;;;;9.03;100.00;95726.00;15286817;19;20010;-48
2023/03/10 06:13:24;;;;;;;0.47;0.20;;;;;;;8.93;100.00;95732.66;15284858;19;20073;-48
2023/03/10 06:18:52;;;;;;;0.73;0.20;;;;;;;8.93;100.00;95732.66;15287182;19;20042;-48
2023/03/10 06:24:17;;;;;;;0.13;0.10;;;;;;;8.79;100.00;95741.84;15284229;19;20059;-48
2023/03/10 06:29:42;;;;;;;0.80;0.22;;;;;;;8.77;100.00;95723.28;15286826;19;20527;-49
2023/03/10 06:35:12;;;;;;;0.93;0.40;;;;;;;8.69;100.00;95736.97;15285314;19;20410;-54
2023/03/10 06:40:36;;;;;;;0.98;0.30;;;;;;;8.65;100.00;95754.53;15285734;19;20018;-50
2023/03/10 06:46:01;;;;;;;0.52;0.30;;;;;;;8.60;100.00;95751.66;15293550;19;20054;-48
2023/03/10 06:51:29;;;;;;;0.82;0.40;;;;;;;8.58;100.00;95751.06;15296618;19;20032;-52
2023/03/10 06:56:54;;;;;;;0.25;0.25;;;;;;;8.59;100.00;95750.84;15298677;19;20023;-48
2023/03/10 07:02:19;;;;;;;0.35;0.20;;;;;;;8.75;100.00;95756.75;15295961;19;20018;-50
2023/03/10 07:07:47;;;;;;;1.30;0.30;;;;;;;8.90;100.00;95753.75;15296260;19;20022;-47
2023/03/10 07:13:14;;;;;;;0.60;0.20;;;;;;;9.03;100.00;95750.16;15294140;19;20078;-48
2023/03/10 07:18:39;;;;;;;0.60;0.30;;;;;;;9.08;100.00;95761.09;15292382;19;20537;-49
2023/03/10 07:24:06;;;;;;;0.50;0.20;;;;;;;9.24;100.00;95762.41;15293500;19;20086;-50
2023/03/10 07:29:31;;;;;;;0.43;0.20;;;;;;;9.39;100.00;95767.44;15294206;19;20086;-48
2023/03/10 07:35:02;;;;;;;1.65;0.50;;;;;;;9.51;100.00;95757.63;15297832;19;20957;-51
2023/03/10 07:40:30;;;;;;;0.20;0.20;;;;;;;9.55;100.00;95744.56;15296601;19;20073;-49
2023/03/10 07:45:54;;;;;;;1.50;0.30;;;;;;;9.63;100.00;95756.91;15296937;19;20098;-50
2023/03/10 07:51:19;;;;;;;0.45;0.40;;;;;;;9.78;100.00;95770.81;15290657;19;20015;-52
2023/03/10 07:56:46;;;;;;;1.55;0.47;;;;;;;9.91;100.00;95739.47;15292605;19;20011;-49
2023/03/10 08:02:13;;;;;;;0.93;0.40;;;;;;;9.97;100.00;95719.75;15290755;19;20022;-51
2023/03/10 08:07:37;;;;;;;2.00;0.57;;;;;;;10.08;100.00;95727.06;15296130;19;20081;-48
2023/03/10 08:13:05;;;;;;;1.42;0.50;;;;;;;10.10;100.00;95734.94;15293690;19;20078;-50
2023/03/10 08:18:29;;;;;;;2.40;0.60;;;;;;;10.18;100.00;95742.69;15295589;19;20027;-48
2023/03/10 08:23:54;;;;;;;1.52;0.38;;;;;;;10.27;100.00;95756.66;15287394;19;20082;-49
2023/03/10 08:29:21;;;;;;;1.58;0.80;;;;;;;10.31;100.00;95760.53;15293050;19;20014;-48
2023/03/10 08:34:52;;;;;;;1.63;0.60;;;;;;;10.33;100.00;95771.91;15289705;19;20014;-49
2023/03/10 08:40:17;;;;;;;1.53;0.63;;;;;;;10.36;100.00;95758.00;15293600;19;20023;-49
2023/03/10 08:45:44;;;;;;;1.55;0.55;;;;;;;10.34;100.00;95749.31;15293681;19;20014;-48
2023/03/10 08:51:09;;;;;;;2.38;0.60;;;;;;;10.37;100.00;95753.41;15292230;19;20830;-49
2023/03/10 08:56:35;;;;;;;1.33;0.57;;;;;;;10.44;100.00;95744.25;15288681;19;20025;-49
2023/03/10 09:02:03;;;;;;;1.90;0.68;;;;;;;10.59;100.00;95753.81;15287189;19;20015;-49
2023/03/10 09:07:27;;;;;;;3.92;0.80;;;;;;;10.87;100.00;95755.09;15286756;19;20033;-50
2023/03/10 09:12:52;;;;;;;1.55;0.70;;;;;;;11.04;100.00;95734.53;15286851;19;20074;-50
2023/03/10 09:18:35;;;;;;;1.95;0.60;;;;;;;11.19;100.00;95736.78;15285533;19;20482;-49
2023/03/10 09:24:01;;;;;;;3.17;0.77;;;;;;;11.41;100.00;95755.09;15283880;19;20601;-49
2023/03/10 09:29:27;;;;;;;3.47;0.63;;;;;;;11.55;100.00;95761.91;15283274;19;20014;-50
2023/03/10 09:35:10;;;;;;;1.55;0.60;;;;;;;11.50;100.00;95748.31;15286080;19;20023;-49
2023/03/10 09:40:39;;;;;;;1.88;0.60;;;;;;;11.49;100.00;95764.69;15288269;19;20026;-48
2023/03/10 09:46:08;;;;;;;2.75;0.80;;;;;;;11.35;100.00;95756.84;15288857;19;20082;-49
2023/03/10 09:51:39;;;;;;;2.40;0.98;;;;;;;11.19;100.00;95760.22;15288049;19;20025;-50
2023/03/10 09:57:07;;;;;;;1.75;0.65;;;;;;;11.32;100.00;95756.47;15287534;19;20019;-49
2023/03/10 10:02:37;;;;;;;1.70;0.52;;;;;;;11.19;100.00;95750.25;15284462;19;20096;-49
2023/03/10 10:08:07;;;;;;;1.30;0.57;;;;;;;11.18;100.00;95747.78;15288925;19;20487;-49
2023/03/10 10:13:34;;;;;;;1.80;0.70;;;;;;;11.18;100.00;95750.50;15288332;19;20021;-50
2023/03/10 10:19:08;;;;;;;3.03;0.80;;;;;;;11.27;100.00;95759.88;15285813;19;20014;-49
2023/03/10 10:24:36;;;;;;;0.85;0.45;;;;;;;11.44;100.00;95745.72;15286531;19;20011;-55
2023/03/10 10:30:00;;;;;;;1.60;0.55;;;;;;;11.57;100.00;95726.63;15283026;19;20018;-47
2023/03/10 10:35:34;;;;;;;1.65;0.70;;;;;;;11.53;100.00;95750.53;15283949;19;20018;-50
2023/03/10 10:41:05;;;;;;;3.63;0.60;;;;;;;11.44;100.00;95751.94;15284089;19;20021;-52
2023/03/10 10:46:33;;;;;;;2.83;0.55;;;;;;;11.33;100.00;95761.66;15285964;19;20093;-48
2023/03/10 10:52:01;;;;;;;1.70;0.38;;;;;;;11.23;100.00;95756.00;15283306;19;20355;-50
2023/03/10 10:57:30;;;;;;;1.52;0.60;;;;;;;11.24;100.00;95763.03;15285840;19;20041;-52
2023/03/10 11:02:57;;;;;;;3.30;0.73;;;;;;;11.41;100.00;95758.63;15276356;19;20025;-49
2023/03/10 11:08:27;;;;;;;2.17;0.60;;;;;;;11.59;100.00;95737.97;15283666;19;20045;-49
2023/03/10 11:14:14;;;;;;;1.65;0.60;;;;;;;11.81;100.00;95732.03;15282673;19;20163;-51
2023/03/10 11:19:48;;;;;;;1.95;0.75;;;;;;;12.14;100.00;95719.81;15283259;19;20019;-49
2023/03/10 11:25:27;;;;;;;1.13;0.60;;;;;;;12.07;100.00;95719.09;15279023;19;20082;-49
2023/03/10 11:30:59;;;;;;;2.17;0.70;;;;;;;12.03;100.00;95716.06;15286780;19;20014;-49
2023/03/10 11:36:35;;;;;;;1.80;0.47;;;;;;;11.85;100.00;95722.38;15294268;19;20006;-49
2023/03/10 11:42:20;;;;;;;1.98;0.60;;;;;;;11.87;100.00;95717.59;15295264;19;20014;-49
2023/03/10 11:47:56;;;;;;;0.98;0.50;;;;;;;11.64;100.00;95738.13;15292281;19;20456;-53
2023/03/10 11:53:27;;;;;;;1.65;0.47;;;;;;;11.40;100.00;95724.63;15297405;19;20011;-50
2023/03/10 11:58:56;;;;;;;1.52;0.32;;;;;;;11.33;100.00;95715.84;15295135;19;20007;-53
2023/03/10 12:04:28;;;;;;;1.23;0.60;;;;;;;11.29;100.00;95711.97;15295350;19;20030;-48
2023/03/10 12:09:56;;;;;;;0.95;0.35;;;;;;;11.29;100.00;95709.25;15290028;19;20015;-50
2023/03/10 12:15:27;;;;;;;2.05;0.60;;;;;;;11.39;100.00;95692.53;15296704;19;20038;-49
2023/03/10 12:21:23;;;;;;;1.43;0.60;;;;;;;11.32;100.00;95702.56;15293090;19;20022;-50
2023/03/10 12:27:09;;;;;;;1.42;0.60;;;;;;;11.36;100.00;95682.19;15292805;19;20367;-48
2023/03/10 12:32:45;;;;;;;2.15;0.52;;;;;;;10.86;100.00;95704.97;15291081;19;20478;-48
2023/03/10 12:38:49;;;;;;;0.55;0.22;;;;;;;10.36;100.00;95706.88;15293892;19;20020;-50
2023/03/10 12:44:37;;;;;;;0.77;0.30;;;;;;;10.23;100.00;95691.69;15287056;19;20003;-47
2023/03/10 12:50:05;;;;;;;0.30;0.10;;;;;;;10.20;100.00;95705.63;15289733;19;20031;-52
2023/03/10 12:55:35;;;;;;;0.47;0.20;;;;;;;9.95;100.00;95706.53;15289663;19;20021;-48
2023/03/10 13:01:03;;;;;;;0.38;0.20;;;;;;;9.81;100.00;95713.94;15289992;19;20023;-49
2023/03/10 13:06:35;;;;;;;0.22;0.17;;;;;;;9.79;100.00;95713.34;15286729;19;20023;-51
2023/03/10 13:12:07;;;;;;;0.30;0.10;;;;;;;9.78;100.00;95694.72;15283144;19;20082;-52
2023/03/10 13:17:34;;;;;;;0.17;0.17;;;;;;;9.91;100.00;95681.13;15288819;19;20015;-49
2023/03/10 13:23:02;;;;;;;0.15;0.10;;;;;;;10.05;100.00;95679.13;15286397;19;20010;-49
2023/03/10 13:28:33;;;;;;;1.75;0.20;;;;;;;10.28;100.00;95682.97;15289843;19;20020;-50
2023/03/10 13:33:59;;;;;;;0.23;0.17;;;;;;;10.62;100.00;95673.41;15288111;19;20021;-52
2023/03/10 13:39:26;;;;;;;0.57;0.13;;;;;;;11.14;100.00;95663.91;15289104;19;20102;-51
2023/03/10 13:44:53;;;;;;;0.30;0.22;;;;;;;11.32;100.00;95643.28;15283574;19;20014;-50
2023/03/10 13:50:19;;;;;;;0.38;0.30;;;;;;;11.57;100.00;95657.34;15288694;19;20030;-50
2023/03/10 13:55:48;;;;;;;0.75;0.40;;;;;;;11.76;100.00;95649.09;15280994;19;20596;-49
2023/03/10 14:01:20;;;;;;;0.22;0.22;;;;;;;11.92;100.00;95638.66;15282136;19;20018;-50
2023/03/10 14:06:45;;;;;;;0.90;0.40;;;;;;;12.02;100.00;95645.09;15276471;19;20014;-48
2023/03/10 14:12:11;;;;;;;1.38;0.40;;;;;;;11.80;100.00;95649.47;15284323;19;20866;-51
2023/03/10 14:17:42;;;;;;;1.25;0.35;;;;;;;11.74;100.00;95647.72;15277372;19;20070;-55
2023/03/10 14:23:38;;;;;;;0.35;0.30;;;;;;;11.87;100.00;95637.50;15282616;19;20364;-54
2023/03/10 14:29:03;;;;;;;1.85;0.30;;;;;;;11.99;100.00;95644.78;15282794;19;20022;-50
2023/03/10 14:34:31;;;;;;;0.30;0.30;;;;;;;11.99;100.00;95637.47;15281668;19;20029;-50
2023/03/10 14:39:55;;;;;;;1.20;0.22;;;;;;;12.35;100.00;95621.16;15283916;19;20094;-51
2023/03/10 14:45:27;;;;;;;0.82;0.45;;;;;;;12.27;100.00;95622.38;15281785;19;20014;-53
2023/03/10 14:50:56;;;;;;;0.15;0.10;;;;;;;12.04;100.00;95622.47;15274288;19;20034;-53
2023/03/10 14:56:23;;;;;;;0.63;0.20;;;;;;;11.82;100.00;95641.94;15282008;19;20011;-49
2023/03/10 15:01:48;;;;;;;0.43;0.20;;;;;;;11.78;100.00;95640.78;15279521;19;20011;-51
2023/03/10 15:07:16;;;;;;;0.52;0.35;;;;;;;11.37;100.00;95641.53;15288834;19;20023;-48
2023/03/10 15:12:43;;;;;;;1.45;0.40;;;;;;;11.13;100.00;95642.56;15292657;19;20366;-49
2023/03/10 15:18:08;;;;;;;0.50;0.35;;;;;;;10.91;100.00;95640.44;15291605;19;20025;-49
2023/03/10 15:23:37;;;;;;;0.50;0.20;;;;;;;10.72;100.00;95650.47;15285661;19;20035;-49
2023/03/10 15:29:01;;;;;;;2.28;0.40;;;;;;;10.62;100.00;95634.91;15295633;19;20031;-52
2023/03/10 15:34:33;;;;;;;1.05;0.25;;;;;;;11.00;100.00;95630.97;15285551;19;20023;-49
2023/03/10 15:40:00;;;;;;;0.70;0.30;;;;;;;11.35;100.00;95627.47;15289743;19;20481;-53
2023/03/10 15:45:26;;;;;;;0.52;0.20;;;;;;;11.51;100.00;95631.34;15290686;19;20472;-48
2023/03/10 15:50:50;;;;;;;0.70;0.22;;;;;;;11.55;100.00;95637.88;15290614;19;20518;-53
2023/03/10 15:56:19;;;;;;;0.30;0.20;;;;;;;11.43;100.00;95622.78;15288254;19;20023;-52
2023/03/10 16:01:43;;;;;;;0.55;0.30;;;;;;;11.10;100.00;95623.16;15185895;19;2004109;-53
2023/03/10 16:07:11;;;;;;;0.32;0.28;;;;;;;10.97;100.00;95620.69;15289815;19;20085;-51
2023/03/10 16:12:38;;;;;;;0.38;0.20;;;;;;;10.75;100.00;95625.78;15291151;19;20811;-53
2023/03/10 16:18:04;;;;;;;0.50;0.10;;;;;;;10.47;100.00;95614.63;15290944;19;20086;-55
2023/03/10 16:23:29;;;;;;;0.60;0.40;;;;;;;10.27;100.00;95632.91;15294549;19;20006;-52
2023/03/10 16:28:59;;;;;;;0.85;0.40;;;;;;;10.15;100.00;95630.97;15286294;19;20014;-51
2023/03/10 16:34:23;;;;;;;1.02;0.50;;;;;;;10.03;100.00;95635.50;15289235;19;20023;-50
2023/03/10 16:39:48;;;;;;;0.82;0.30;;;;;;;9.96;100.00;95635.56;15286342;19;20090;-51
2023/03/10 16:45:15;;;;;;;0.80;0.43;;;;;;;9.82;100.00;95634.09;15285408;19;20073;-48
2023/03/10 16:50:41;;;;;;;0.50;0.40;;;;;;;9.79;100.00;95637.22;15284838;19;20014;-51
2023/03/10 16:56:06;;;;;;;0.85;0.40;;;;;;;9.67;100.00;95629.09;15286661;19;20018;-46
2023/03/10 17:01:34;;;;;;;0.50;0.50;;;;;;;9.57;100.00;95645.72;15281864;19;20024;-48
2023/03/10 17:06:58;;;;;;;1.10;0.25;;;;;;;9.47;100.00;95646.25;15278316;19;20085;-48
2023/03/10 17:12:23;;;;;;;0.43;0.40;;;;;;;9.33;100.00;95648.25;15283072;19;20021;-47
2023/03/10 17:17:50;;;;;;;0.38;0.30;;;;;;;9.15;100.00;95642.88;15286010;19;20021;-49
2023/03/10 17:23:15;;;;;;;0.20;0.20;;;;;;;9.04;100.00;95647.06;15284243;19;20101;-48
2023/03/10 17:28:41;;;;;;;0.85;0.40;;;;;;;8.94;100.00;95648.41;15285980;19;20082;-51
2023/03/10 17:34:19;;;;;;;1.05;0.40;;;;;;;8.93;100.00;95648.63;15285336;19;20026;-51
2023/03/10 17:39:43;;;;;;;0.93;0.60;;;;;;;8.82;100.00;95652.84;15285014;19;20626;-47
2023/03/10 17:45:08;;;;;;;0.20;0.20;;;;;;;8.75;100.00;95652.06;15284087;19;20782;-47
2023/03/10 17:50:35;;;;;;;0.70;0.30;;;;;;;8.57;100.00;95659.00;15285054;19;20018;-48
2023/03/10 17:56:01;;;;;;;0.65;0.30;;;;;;;8.41;100.00;95662.19;15282013;19;20017;-48
2023/03/10 18:01:27;;;;;;;1.55;0.30;;;;;;;8.21;100.00;95673.81;15285098;19;20470;-52
2023/03/10 18:06:55;;;;;;;0.80;0.30;;;;;;;8.06;100.00;95674.13;15279185;19;20082;-47
2023/03/10 18:12:19;;;;;;;0.95;0.30;;;;;;;7.98;100.00;95679.72;15282768;19;20522;-49
2023/03/10 18:17:44;;;;;;;0.65;0.40;;;;;;;7.89;100.00;95684.50;15285302;19;20020;-48
2023/03/10 18:23:11;;;;;;;0.50;0.47;;;;;;;7.82;100.00;95689.88;15280532;19;20029;-47
2023/03/10 18:28:36;;;;;;;0.65;0.60;;;;;;;7.74;100.00;95686.59;15284306;19;20543;-49
2023/03/10 18:34:08;;;;;;;0.93;0.80;;;;;;;7.69;100.00;95685.41;15277931;19;20423;-50
2023/03/10 18:39:37;;;;;;;1.00;0.80;;;;;;;7.65;100.00;95696.72;15287201;19;20489;-51
2023/03/10 18:45:03;;;;;;;0.60;0.60;;;;;;;7.56;100.00;95704.19;15298289;19;20020;-51
2023/03/10 18:50:27;;;;;;;0.30;0.30;;;;;;;7.47;100.00;95698.22;15298039;19;20101;-50
2023/03/10 18:55:55;;;;;;;0.73;0.50;;;;;;;7.43;100.00;95698.84;15300728;19;20089;-52
2023/03/10 19:01:19;;;;;;;0.50;0.40;;;;;;;7.37;100.00;95671.84;15298048;19;20527;-47
2023/03/10 19:06:44;;;;;;;0.65;0.30;;;;;;;7.28;100.00;95681.13;15290167;19;20037;-47
2023/03/10 19:12:11;;;;;;;0.20;0.20;;;;;;;7.13;100.00;95673.34;15295016;19;20472;-49
2023/03/10 19:17:36;;;;;;;0.13;0.10;;;;;;;7.01;100.00;95672.31;15294778;19;20460;-47
2023/03/10 19:23:01;;;;;;;1.35;0.20;;;;;;;6.84;100.00;95677.25;15294090;19;20505;-49
2023/03/10 19:28:29;;;;;;;0.30;0.20;;;;;;;6.73;100.00;95698.25;15287187;19;20018;-48
2023/03/10 19:33:53;;;;;;;0.98;0.30;;;;;;;6.58;100.00;95692.25;15279724;19;20025;-53
2023/03/10 19:39:18;;;;;;;0.10;0.10;;;;;;;6.53;100.00;95694.69;15293224;19;20025;-54
2023/03/10 19:44:46;;;;;;;0.45;0.13;;;;;;;6.41;100.00;95706.00;15298700;19;20018;-53
2023/03/10 19:50:10;;;;;;;0.30;0.25;;;;;;;6.38;100.00;95706.41;15296712;19;20077;-51
2023/03/10 19:55:35;;;;;;;0.20;0.20;;;;;;;6.29;100.00;95712.97;15298492;19;20046;-53
2023/03/10 20:01:03;;;;;;;0.00;0.00;;;;;;;6.23;100.00;95697.72;15270787;19;20037;-53
2023/03/10 20:06:28;;;;;;;0.13;0.10;;;;;;;6.14;100.00;95715.78;15293772;19;20023;-53
2023/03/10 20:11:52;;;;;;;0.10;0.10;;;;;;;6.03;100.00;95709.19;15290034;19;20098;-51
2023/03/10 20:17:19;;;;;;;2.10;0.10;;;;;;;5.94;100.00;95707.69;15295514;19;20017;-50
2023/03/10 20:22:48;;;;;;;0.88;0.17;;;;;;;5.84;100.00;95726.75;15292127;19;20102;-52
2023/03/10 20:28:13;;;;;;;0.30;0.10;;;;;;;5.73;100.00;95713.94;15288946;19;20899;-50
2023/03/10 20:33:47;;;;;;;0.15;0.10;;;;;;;5.63;100.00;95706.28;15289985;19;20018;-48
2023/03/10 20:39:11;;;;;;;0.28;0.20;;;;;;;5.57;100.00;95705.22;15293835;19;20018;-56
2023/03/10 20:44:36;;;;;;;0.20;0.10;;;;;;;5.49;100.00;95718.75;15287485;19;20009;-57
2023/03/10 20:50:04;;;;;;;0.30;0.10;;;;;;;5.46;100.00;95703.09;15292327;19;20824;-51
2023/03/10 20:55:31;;;;;;;0.10;0.10;;;;;;;5.40;100.00;95723.41;15292261;19;20023;-53
2023/03/10 21:00:56;;;;;;;0.20;0.10;;;;;;;5.36;100.00;95725.66;15291362;19;20086;-49
2023/03/10 21:06:24;;;;;;;0.30;0.20;;;;;;;5.36;100.00;95716.78;15287772;19;20384;-47
2023/03/10 21:11:50;;;;;;;0.10;0.10;;;;;;;5.31;100.00;95727.25;15284185;19;20022;-54
2023/03/10 21:17:15;;;;;;;0.28;0.20;;;;;;;5.21;100.00;95744.44;15281275;19;20098;-48
2023/03/10 21:22:42;;;;;;;0.15;0.15;;;;;;;5.12;100.00;95755.44;15257070;19;20023;-49
2023/03/10 21:28:07;;;;;;;0.52;0.30;;;;;;;5.00;100.00;95777.31;15275547;19;20028;-54
2023/03/10 21:33:40;;;;;;;0.13;0.10;;;;;;;4.85;100.00;95769.38;15279056;19;20018;-49
2023/03/10 21:39:09;;;;;;;0.80;0.20;;;;;;;4.61;100.00;95792.72;15283119;19;20381;-49
2023/03/10 21:44:33;;;;;;;0.10;0.10;;;;;;;4.45;100.00;95799.13;15286371;19;20016;-53
2023/03/10 21:49:57;;;;;;;0.10;0.10;;;;;;;4.18;100.00;95819.28;15277140;19;20015;-57
2023/03/10 21:55:29;;;;;;;1.67;0.20;;;;;;;3.80;100.00;95828.19;15279468;19;20019;-53
2023/03/10 22:00:55;;;;;;;0.10;0.10;;;;;;;2.84;100.00;95875.75;15275203;19;20361;-54
2023/03/10 22:06:20;;;;;;;0.10;0.10;;;;;;;2.12;100.00;95873.09;15277088;19;20034;-50
2023/03/10 22:11:48;;;;;;;0.22;0.22;;;;;;;1.66;100.00;95979.84;15280857;19;20106;-49
2023/03/10 22:17:13;;;;;;;0.30;0.30;;;;;;;1.43;100.00;95926.63;15279027;19;20017;-53
2023/03/10 22:22:38;;;;;;;0.40;0.40;;;;;;;1.12;100.00;95947.63;15274234;19;20017;-52
2023/03/10 22:28:05;;;;;;;0.57;0.50;;;;;;;0.95;100.00;95963.50;15277301;19;20010;-49
2023/03/10 22:33:36;;;;;;;0.40;0.40;;;;;;;0.73;100.00;95986.97;15278106;19;20025;-51
2023/03/10 22:39:00;;;;;;;0.75;0.75;;;;;;;0.42;100.00;96003.38;15279824;19;20352;-50
2023/03/10 22:44:28;;;;;;;0.80;0.80;;;;;;;0.33;100.00;96032.63;15277335;19;20014;-57
2023/03/10 22:49:53;;;;;;;0.90;0.90;;;;;;;0.26;100.00;96041.19;15279348;19;21602;-51
2023/03/10 22:55:22;;;;;;;0.90;0.90;;;;;;;0.28;100.00;96076.31;15276340;19;20025;-54
2023/03/10 23:00:50;;;;;;;0.90;0.90;;;;;;;0.34;100.00;96090.75;15277910;19;20011;-55
2023/03/10 23:06:16;;;;;;;1.00;1.00;;;;;;;0.31;100.00;96096.34;15276939;19;20737;-53
2023/03/10 23:11:40;;;;;;;1.00;1.00;;;;;;;0.09;100.00;96134.72;15278280;19;20474;-54
2023/03/10 23:17:08;;;;;;;1.30;1.20;;;;;;;-0.05;100.00;96165.19;15279543;19;20017;-56
2023/03/10 23:22:33;;;;;;;1.38;1.20;;;;;;;-0.08;100.00;96192.81;15281951;19;20626;-55
2023/03/10 23:27:57;;;;;;;1.30;1.20;;;;;;;-0.07;100.00;96175.94;15285159;19;20017;-53
2023/03/10 23:33:32;;;;;;;2.65;1.48;;;;;;;-0.11;100.00;96208.97;15289039;19;20015;-56
2023/03/10 23:38:57;;;;;;;1.70;1.60;;;;;;;-0.14;100.00;96234.91;15294037;19;20078;-55
2023/03/10 23:44:22;;;;;;;1.73;1.63;;;;;;;-0.25;100.00;96272.97;15288224;19;20015;-51
2023/03/10 23:49:49;;;;;;;2.65;2.47;;;;;;;-0.46;100.00;96337.53;15287637;19;20566;-53
2023/03/10 23:55:15;;;;;;;3.00;2.80;;;;;;;-0.55;100.00;96407.97;15292619;19;20018;-49
